This is the latest recevied weather packets stored in our database for station/object KC3SOZ. If no packets are shown the sender has not sent any weather packets the latest 10 day(s).
| Time | Temp. | Humidity | Pressure | Rain* | Wind** | Luminosity | Snow |
|---|---|---|---|---|---|---|---|
| 1777987264 | 21.11° C | 63% | 1011.1 hPa | 0 mm | - | 449 W/m² | - |
| 1777986960 | 21.11° C | 60% | 1011.2 hPa | 0 mm | - | 430 W/m² | - |
| 1777986658 | 20.56° C | 63% | 1011.4 hPa | 0 mm | - | 413 W/m² | - |
| 1777986355 | 20.56° C | 65% | 1011.5 hPa | 0 mm | - | 393 W/m² | - |
| 1777986054 | 20° C | 65% | 1011.5 hPa | 0 mm | - | 263 W/m² | - |
| 1777985750 | 20° C | 66% | 1011.4 hPa | 0 mm | - | 207 W/m² | - |
| 1777985447 | 20° C | 65% | 1011.4 hPa | 0 mm | - | 399 W/m² | - |
| 1777985144 | 20° C | 65% | 1011.4 hPa | 0 mm | - | 346 W/m² | - |
| 1777984840 | 20° C | 66% | 1011.4 hPa | 0 mm | - | 317 W/m² | - |
| 1777984537 | 20.56° C | 64% | 1011.2 hPa | 0 mm | - | 304 W/m² | - |
| 1777984233 | 19.44° C | 69% | 1011.5 hPa | 0 mm | - | 280 W/m² | - |
| 1777983930 | 18.33° C | 74% | 1011.5 hPa | 0 mm | - | 273 W/m² | - |
| 1777983627 | 17.22° C | 78% | 1011.5 hPa | 0 mm | - | 163 W/m² | - |
| 1777983323 | 17.78° C | 72% | 1011.3 hPa | 0 mm | - | 73 W/m² | - |
| 1777983020 | 17.78° C | 71% | 1011.3 hPa | 0 mm | - | 81 W/m² | - |
| 1777982716 | 18.33° C | 76% | 1011.3 hPa | 0 mm | - | 107 W/m² | - |
| 1777982412 | 18.33° C | 75% | 1011.3 hPa | 0 mm | - | 149 W/m² | - |
| 1777982107 | 17.22° C | 74% | 1011.3 hPa | 0 mm | - | 263 W/m² | - |
| 1777981805 | 17.22° C | 85% | 1011.2 hPa | 0 mm | - | 237 W/m² | - |
| 1777981501 | 17.22° C | 81% | 1010.8 hPa | 0 mm | - | 175 W/m² | - |
| 1777981198 | 16.67° C | 84% | 1010.9 hPa | 0 mm | - | 145 W/m² | - |
| 1777980894 | 15.56° C | 83% | 1011.1 hPa | 0 mm | - | 101 W/m² | - |
| 1777980590 | 15° C | 86% | 1011.1 hPa | 0 mm | - | 112 W/m² | - |
| 1777980287 | 14.44° C | 88% | 1011 hPa | 0 mm | - | 98 W/m² | - |
| 1777979984 | 13.89° C | 90% | 1011.1 hPa | 0 mm | - | 88 W/m² | - |
* Rain latest hour (hover to see other rain measurements)
** Current wind speed in m/s (hover to see current wind gust speed)